createdAt,value
2023-05-05T00:02:25.482Z,80.78
2023-05-05T00:04:53.052Z,66.80
2023-05-05T00:07:19.671Z,59.50
2023-05-05T00:09:46.214Z,57.30
2023-05-05T00:12:12.812Z,51.85
2023-05-05T00:14:39.445Z,62.10
2023-05-05T00:17:06.088Z,51.03
2023-05-05T00:19:32.738Z,48.40
2023-05-05T00:21:59.364Z,45.55
2023-05-05T00:24:25.964Z,47.03
2023-05-05T00:26:52.539Z,47.85
2023-05-05T00:29:19.150Z,44.40
2023-05-05T00:31:46.020Z,51.58
2023-05-05T00:34:12.572Z,48.50
2023-05-05T00:36:39.149Z,48.83
2023-05-05T00:39:05.772Z,46.53
2023-05-05T00:41:32.342Z,43.25
2023-05-05T00:43:58.921Z,40.33
2023-05-05T00:46:28.060Z,35.70
2023-05-05T00:48:55.355Z,33.20
2023-05-05T00:51:22.274Z,30.20
2023-05-05T00:53:49.181Z,27.13
2023-05-05T00:56:17.385Z,24.33
2023-05-05T00:58:44.339Z,22.27
2023-05-05T01:01:12.091Z,20.73
2023-05-05T01:03:39.946Z,20.52
2023-05-05T01:06:06.855Z,20.92
2023-05-05T01:09:02.126Z,20.23
2023-05-05T01:14:33.999Z,19.85
2023-05-05T01:17:08.031Z,22.27
2023-05-05T01:19:53.112Z,23.55
2023-05-05T01:22:24.864Z,26.85
2023-05-05T01:25:11.435Z,31.38
2023-05-05T01:27:59.542Z,34.03
2023-05-05T01:30:50.034Z,39.95
2023-05-05T01:33:23.244Z,45.97
2023-05-05T01:35:57.770Z,53.85
2023-05-05T01:38:35.584Z,62.30
2023-05-05T01:41:19.420Z,68.00
2023-05-05T01:43:50.255Z,76.80
2023-05-05T01:46:19.284Z,85.50
2023-05-05T01:48:48.304Z,89.05
2023-05-05T01:51:17.917Z,90.40
2023-05-05T01:53:47.185Z,94.07
2023-05-05T01:56:16.428Z,100.68
2023-05-05T01:58:45.162Z,109.95
2023-05-05T02:01:13.508Z,112.82
2023-05-05T02:03:42.090Z,112.22
2023-05-05T02:06:11.214Z,116.00
2023-05-05T02:08:39.442Z,118.22
2023-05-05T02:11:09.384Z,115.95
2023-05-05T02:13:37.741Z,119.00
2023-05-05T02:16:05.435Z,115.43
2023-05-05T02:18:35.854Z,115.20
2023-05-05T02:21:03.586Z,110.72
2023-05-05T02:23:31.234Z,112.75
2023-05-05T02:26:04.920Z,113.55
2023-05-05T02:28:48.875Z,101.63
2023-05-05T02:31:17.822Z,101.55
2023-05-05T02:33:47.511Z,95.72
2023-05-05T02:36:21.944Z,90.07
2023-05-05T02:38:54.158Z,82.32
2023-05-05T02:41:22.413Z,73.53
2023-05-05T02:43:51.120Z,73.03
2023-05-05T02:46:18.139Z,68.78
2023-05-05T02:48:44.935Z,62.10
2023-05-05T02:51:11.597Z,61.00
2023-05-05T02:53:38.861Z,58.10
2023-05-05T02:56:26.664Z,54.53
2023-05-05T02:59:16.328Z,50.38
2023-05-05T03:01:51.292Z,46.50
2023-05-05T03:04:35.092Z,44.90
2023-05-05T03:07:10.960Z,42.72
2023-05-05T03:09:41.774Z,42.17
2023-05-05T03:12:16.999Z,41.85
2023-05-05T03:14:46.037Z,39.78
2023-05-05T03:17:14.660Z,38.72
2023-05-05T03:19:43.231Z,38.15
2023-05-05T03:22:10.198Z,37.42
2023-05-05T03:24:36.816Z,35.90
2023-05-05T03:27:03.463Z,34.85
2023-05-05T03:29:30.278Z,34.85
2023-05-05T03:31:56.972Z,35.47
2023-05-05T03:34:23.568Z,35.72
2023-05-05T03:36:50.122Z,34.90
2023-05-05T03:39:17.099Z,36.00
2023-05-05T03:41:43.620Z,35.22
2023-05-05T03:44:10.528Z,36.53
2023-05-05T03:46:37.115Z,37.33
2023-05-05T03:49:03.662Z,37.17
2023-05-05T03:51:30.225Z,39.28
2023-05-05T03:53:56.943Z,39.20
2023-05-05T03:56:23.465Z,42.40
2023-05-05T03:58:50.038Z,44.22
2023-05-05T04:01:16.757Z,46.28
2023-05-05T04:03:43.559Z,48.28
2023-05-05T04:06:10.290Z,52.00
2023-05-05T04:08:36.893Z,52.38
2023-05-05T04:11:03.598Z,56.97
2023-05-05T04:13:30.283Z,59.90
2023-05-05T04:15:56.959Z,61.40
2023-05-05T04:18:23.559Z,64.93
2023-05-05T04:20:50.124Z,67.70
2023-05-05T04:23:16.704Z,65.78
2023-05-05T04:25:43.262Z,69.47
2023-05-05T04:28:09.801Z,71.10
2023-05-05T04:30:36.347Z,81.82
2023-05-05T04:33:03.016Z,78.38
2023-05-05T04:35:29.636Z,79.45
2023-05-05T04:37:56.247Z,81.10
2023-05-05T04:40:22.774Z,81.55
2023-05-05T04:42:49.496Z,83.93
2023-05-05T04:45:16.206Z,85.38
2023-05-05T04:47:42.897Z,83.90
2023-05-05T04:50:10.341Z,82.55
2023-05-05T04:52:37.681Z,84.68
2023-05-05T04:55:04.716Z,80.03
2023-05-05T04:57:31.579Z,83.43
2023-05-05T04:59:59.574Z,83.22
2023-05-05T05:02:27.115Z,80.70
2023-05-05T05:04:53.732Z,83.38
2023-05-05T05:07:20.371Z,85.57
2023-05-05T05:09:46.979Z,82.95
2023-05-05T05:12:13.548Z,81.55
2023-05-05T05:14:40.451Z,78.78
2023-05-05T05:17:07.025Z,81.05
2023-05-05T05:19:33.872Z,77.90
2023-05-05T05:22:00.682Z,76.57
2023-05-05T05:24:27.300Z,76.95
2023-05-05T05:26:53.894Z,74.70
2023-05-05T05:29:20.572Z,70.68
2023-05-05T05:31:47.207Z,69.30
2023-05-05T05:34:13.896Z,72.63
2023-05-05T05:36:40.555Z,73.18
2023-05-05T05:39:07.104Z,68.60
2023-05-05T05:41:33.750Z,66.82
2023-05-05T05:44:00.418Z,70.70
2023-05-05T05:46:26.968Z,65.85
2023-05-05T05:48:53.558Z,68.10
2023-05-05T05:51:20.526Z,66.72
2023-05-05T05:53:47.083Z,56.08
2023-05-05T05:56:13.643Z,46.63
2023-05-05T05:58:40.729Z,45.72
2023-05-05T06:01:07.295Z,47.08
2023-05-05T06:03:34.229Z,52.30
2023-05-05T06:06:00.989Z,47.90
2023-05-05T06:08:27.759Z,54.53
2023-05-05T06:10:54.392Z,64.32
2023-05-05T06:13:21.565Z,65.43
2023-05-05T06:15:48.194Z,71.75
2023-05-05T06:18:14.879Z,74.28
2023-05-05T06:20:41.712Z,70.32
2023-05-05T06:23:08.271Z,66.60
2023-05-05T06:25:34.877Z,62.60
2023-05-05T06:28:02.117Z,56.45
2023-05-05T06:30:28.819Z,50.60
2023-05-05T06:32:55.818Z,45.25
2023-05-05T06:35:22.555Z,39.45
2023-05-05T06:37:49.139Z,37.80
2023-05-05T06:40:15.875Z,30.80
2023-05-05T06:42:42.920Z,30.35
2023-05-05T06:45:09.780Z,29.77
2023-05-05T06:47:36.567Z,24.25
2023-05-05T06:50:03.872Z,25.13
2023-05-05T06:52:30.471Z,21.27
2023-05-05T06:54:57.017Z,20.38
2023-05-05T06:57:23.754Z,20.95
2023-05-05T06:59:50.315Z,18.25
2023-05-05T07:02:16.915Z,19.40
2023-05-05T07:04:44.413Z,20.42
2023-05-05T07:07:11.016Z,18.60
2023-05-05T07:09:37.610Z,19.95
2023-05-05T07:12:04.465Z,19.58
2023-05-05T07:14:31.309Z,23.85
2023-05-05T07:16:58.154Z,25.92
2023-05-05T07:19:24.993Z,28.98
2023-05-05T07:21:52.100Z,26.90
2023-05-05T07:24:18.748Z,31.80
2023-05-05T07:26:45.424Z,37.50
2023-05-05T07:29:12.054Z,46.47
2023-05-05T07:31:38.685Z,45.65
2023-05-05T07:34:05.337Z,38.45
2023-05-05T07:36:32.929Z,46.78
2023-05-05T07:39:00.437Z,35.72
2023-05-05T07:41:27.052Z,45.03
2023-05-05T07:43:53.655Z,43.05
2023-05-05T07:46:20.246Z,42.10
2023-05-05T07:48:47.188Z,40.03
2023-05-05T07:51:13.766Z,38.80
2023-05-05T07:53:41.240Z,50.88
2023-05-05T07:56:08.837Z,72.75
2023-05-05T07:58:35.486Z,65.82
2023-05-05T08:01:02.822Z,62.30
2023-05-05T08:03:29.662Z,48.65
2023-05-05T08:05:56.547Z,47.78
2023-05-05T08:08:24.937Z,65.05
2023-05-05T08:10:53.036Z,52.72
2023-05-05T08:13:19.971Z,53.17
2023-05-05T08:15:46.648Z,47.20
2023-05-05T08:18:14.096Z,43.08
2023-05-05T08:20:40.717Z,39.22
2023-05-05T08:23:07.282Z,33.03
2023-05-05T08:25:33.881Z,28.02
2023-05-05T08:28:01.728Z,28.85
2023-05-05T08:30:28.500Z,26.45
2023-05-05T08:32:55.369Z,27.60
2023-05-05T08:35:22.204Z,30.10
2023-05-05T08:37:48.796Z,24.98
2023-05-05T08:40:15.437Z,22.63
2023-05-05T08:42:42.653Z,23.05
2023-05-05T08:45:10.427Z,21.17
2023-05-05T08:47:38.380Z,17.90
2023-05-05T08:50:08.079Z,18.10
2023-05-05T08:52:45.823Z,17.80
2023-05-05T08:55:21.715Z,15.82
2023-05-05T08:57:58.456Z,16.23
2023-05-05T09:00:27.082Z,15.85
2023-05-05T09:02:56.960Z,14.70
2023-05-05T09:05:24.280Z,15.02
2023-05-05T09:07:51.642Z,14.90
2023-05-05T09:10:19.257Z,15.02
2023-05-05T09:12:46.211Z,13.43
2023-05-05T09:15:15.190Z,13.40
2023-05-05T09:17:42.431Z,14.02
2023-05-05T09:20:11.187Z,12.90
2023-05-05T09:22:46.279Z,13.32
2023-05-05T09:25:15.547Z,13.45
2023-05-05T09:27:45.831Z,13.90
2023-05-05T09:30:23.585Z,14.07
2023-05-05T09:32:51.959Z,13.80
2023-05-05T09:35:20.139Z,15.68
2023-05-05T09:37:47.557Z,14.93
2023-05-05T09:40:15.712Z,14.52
2023-05-05T09:42:42.742Z,13.10
2023-05-05T09:45:18.140Z,13.25
2023-05-05T09:47:46.414Z,14.27
2023-05-05T09:50:18.677Z,13.57
2023-05-05T09:52:56.117Z,13.27
2023-05-05T09:55:23.897Z,13.15
2023-05-05T09:57:50.804Z,14.70
2023-05-05T10:00:18.112Z,13.93
2023-05-05T10:02:45.432Z,13.07
2023-05-05T10:05:13.494Z,13.73
2023-05-05T10:07:42.013Z,14.30
2023-05-05T10:10:11.906Z,13.88
2023-05-05T10:12:39.717Z,12.75
2023-05-05T10:15:08.553Z,13.45
2023-05-05T10:18:05.367Z,12.88
2023-05-05T10:20:34.460Z,15.48
2023-05-05T10:23:05.598Z,12.95
2023-05-05T10:25:39.157Z,13.82
2023-05-05T10:28:06.775Z,13.68
2023-05-05T10:30:41.588Z,12.48
2023-05-05T10:35:53.911Z,12.30
2023-05-05T10:38:21.590Z,13.70
2023-05-05T10:40:48.883Z,13.23
2023-05-05T10:43:15.763Z,12.50
2023-05-05T10:45:43.256Z,11.90
2023-05-05T10:48:18.851Z,12.02
2023-05-05T10:50:52.865Z,13.10
2023-05-05T10:53:26.080Z,13.68
2023-05-05T10:56:04.392Z,11.83
2023-05-05T10:58:58.208Z,12.27
2023-05-05T11:01:36.470Z,12.45
2023-05-05T11:04:23.625Z,13.05
2023-05-05T11:07:14.722Z,12.18
2023-05-05T11:09:59.209Z,12.88
2023-05-05T11:12:25.826Z,11.43
2023-05-05T11:15:26.375Z,11.98
2023-05-05T11:17:54.347Z,11.93
2023-05-05T11:20:45.449Z,11.23
2023-05-05T11:23:13.367Z,11.80
2023-05-05T11:25:45.340Z,12.10
2023-05-05T11:28:31.531Z,12.15
2023-05-05T11:31:00.892Z,12.20
2023-05-05T11:33:37.731Z,13.98
2023-05-05T11:36:09.443Z,12.68
2023-05-05T11:38:39.090Z,12.88
2023-05-05T11:41:17.340Z,12.18
2023-05-05T11:43:44.041Z,12.55
2023-05-05T11:46:14.777Z,12.48
2023-05-05T11:48:48.532Z,12.23
2023-05-05T11:51:18.941Z,12.55
2023-05-05T11:53:47.472Z,13.40
2023-05-05T11:56:20.466Z,11.88
2023-05-05T11:59:04.808Z,12.88
2023-05-05T12:03:58.390Z,12.65
2023-05-05T12:06:26.022Z,12.60
2023-05-05T12:08:52.625Z,13.15
2023-05-05T12:11:19.295Z,13.02
2023-05-05T12:13:46.444Z,13.23
2023-05-05T12:16:17.196Z,13.02
2023-05-05T12:18:43.787Z,12.43
2023-05-05T12:21:28.308Z,11.50
2023-05-05T12:23:54.899Z,12.77
2023-05-05T12:26:31.878Z,12.90
2023-05-05T12:28:59.746Z,10.98
2023-05-05T12:31:41.382Z,11.85
2023-05-05T12:34:11.941Z,10.88
2023-05-05T12:36:39.549Z,12.20
2023-05-05T12:39:06.397Z,11.27
2023-05-05T12:41:33.685Z,11.25
2023-05-05T12:44:03.229Z,12.15
2023-05-05T12:46:31.121Z,10.88
2023-05-05T12:49:05.927Z,10.77
2023-05-05T12:51:34.342Z,9.77
2023-05-05T12:54:05.456Z,9.77
2023-05-05T12:56:36.237Z,10.13
2023-05-05T12:59:10.330Z,9.95
2023-05-05T13:01:49.208Z,9.55
2023-05-05T13:04:16.833Z,9.85
2023-05-05T13:06:44.995Z,10.05
2023-05-05T13:09:36.531Z,10.82
2023-05-05T13:12:04.438Z,9.93
2023-05-05T13:14:34.913Z,10.02
2023-05-05T13:17:01.538Z,10.45
2023-05-05T13:19:28.354Z,10.52
2023-05-05T13:21:56.517Z,9.20
2023-05-05T13:24:31.622Z,10.02
2023-05-05T13:27:05.225Z,9.98
2023-05-05T13:29:32.496Z,9.95
2023-05-05T13:31:59.279Z,9.50
2023-05-05T13:34:26.184Z,9.85
2023-05-05T13:36:53.028Z,9.98
2023-05-05T13:39:19.953Z,9.23
2023-05-05T13:41:46.594Z,9.60
2023-05-05T13:44:14.050Z,10.07
2023-05-05T13:46:41.953Z,9.10
2023-05-05T13:49:08.789Z,10.30
2023-05-05T13:51:35.368Z,8.90
2023-05-05T13:54:02.382Z,8.50
2023-05-05T13:56:29.059Z,9.23
2023-05-05T13:58:55.675Z,9.85
2023-05-05T14:01:22.570Z,9.82
2023-05-05T14:03:49.205Z,9.60
2023-05-05T14:06:15.742Z,9.18
2023-05-05T14:08:42.691Z,9.50
2023-05-05T14:11:09.214Z,9.43
2023-05-05T14:13:35.792Z,9.68
2023-05-05T14:16:02.821Z,9.77
2023-05-05T14:18:29.719Z,10.10
2023-05-05T14:20:56.261Z,10.70
2023-05-05T14:23:22.870Z,9.65
2023-05-05T14:25:49.491Z,9.10
2023-05-05T14:28:16.212Z,9.63
2023-05-05T14:30:43.033Z,9.55
2023-05-05T14:33:09.575Z,9.38
2023-05-05T14:35:36.183Z,9.32
2023-05-05T14:38:02.760Z,8.95
2023-05-05T14:40:30.323Z,8.57
2023-05-05T14:42:57.783Z,9.23
2023-05-05T14:45:24.438Z,9.15
2023-05-05T14:47:51.034Z,9.00
2023-05-05T14:50:17.683Z,9.27
2023-05-05T14:52:44.610Z,8.95
2023-05-05T14:55:11.907Z,9.98
2023-05-05T14:57:38.877Z,9.60
2023-05-05T15:00:07.138Z,9.40
2023-05-05T15:02:33.941Z,9.90
2023-05-05T15:05:00.650Z,9.35
2023-05-05T15:07:28.621Z,9.93
2023-05-05T15:09:58.478Z,9.45
2023-05-05T15:12:26.032Z,9.63
2023-05-05T15:14:52.864Z,10.50
2023-05-05T15:17:19.566Z,8.80
2023-05-05T15:19:46.196Z,8.95
2023-05-05T15:22:12.784Z,10.38
2023-05-05T15:24:39.403Z,9.85
2023-05-05T15:27:06.194Z,9.40
2023-05-05T15:29:32.774Z,9.18
2023-05-05T15:31:59.352Z,9.30
2023-05-05T15:34:26.216Z,10.45
2023-05-05T15:36:52.819Z,9.07
2023-05-05T15:39:19.535Z,9.23
2023-05-05T15:41:46.206Z,9.48
2023-05-05T15:44:12.822Z,9.70
2023-05-05T15:46:39.844Z,9.80
2023-05-05T15:49:06.564Z,9.88
2023-05-05T15:51:33.241Z,10.10
2023-05-05T15:54:00.361Z,9.82
2023-05-05T15:56:27.589Z,9.45
2023-05-05T15:58:54.551Z,9.90
2023-05-05T16:01:21.188Z,10.05
2023-05-05T16:03:47.793Z,10.10
2023-05-05T16:06:14.402Z,9.57
2023-05-05T16:08:41.198Z,10.00
2023-05-05T16:11:07.807Z,9.75
2023-05-05T16:13:34.513Z,9.60
2023-05-05T16:16:01.439Z,9.20
2023-05-05T16:18:28.019Z,9.23
2023-05-05T16:20:54.580Z,9.43
2023-05-05T16:23:21.261Z,9.48
2023-05-05T16:25:47.832Z,10.13
2023-05-05T16:28:14.430Z,9.73
2023-05-05T16:30:42.847Z,9.00
2023-05-05T16:33:09.841Z,9.43
2023-05-05T16:35:36.686Z,9.60
2023-05-05T16:38:03.560Z,9.13
2023-05-05T16:40:30.302Z,9.00
2023-05-05T16:42:56.946Z,10.18
2023-05-05T16:45:24.371Z,8.73
2023-05-05T16:47:51.197Z,9.00
2023-05-05T16:50:17.938Z,9.27
2023-05-05T16:52:44.585Z,8.90
2023-05-05T16:55:11.551Z,9.55
2023-05-05T16:57:38.502Z,9.07
2023-05-05T17:00:10.289Z,9.38
2023-05-05T17:02:36.904Z,9.70
2023-05-05T17:05:03.786Z,9.80
2023-05-05T17:07:30.397Z,9.32
2023-05-05T17:09:56.964Z,9.50
2023-05-05T17:12:23.888Z,10.48
2023-05-05T17:14:51.332Z,10.55
2023-05-05T17:17:18.274Z,10.52
2023-05-05T17:19:44.908Z,11.75
2023-05-05T17:22:11.544Z,11.35
2023-05-05T17:24:38.123Z,11.63
2023-05-05T17:27:04.724Z,11.60
2023-05-05T17:29:31.372Z,11.45
2023-05-05T17:31:58.091Z,10.95
2023-05-05T17:34:24.732Z,11.10
2023-05-05T17:36:51.324Z,10.73
2023-05-05T17:39:17.982Z,10.88
2023-05-05T17:41:44.578Z,10.88
2023-05-05T17:44:11.118Z,10.68
2023-05-05T17:46:38.374Z,10.57
2023-05-05T17:49:05.148Z,10.20
2023-05-05T17:51:32.346Z,10.18
2023-05-05T17:53:58.880Z,11.18
2023-05-05T17:56:25.809Z,11.65
2023-05-05T17:58:53.051Z,10.48
2023-05-05T18:01:23.659Z,11.90
2023-05-05T18:03:50.607Z,12.07
2023-05-05T18:06:17.396Z,13.48
2023-05-05T18:08:44.792Z,16.48
2023-05-05T18:11:11.527Z,19.58
2023-05-05T18:13:38.881Z,23.15
2023-05-05T18:16:05.788Z,28.13
2023-05-05T18:18:32.707Z,33.95
2023-05-05T18:20:59.319Z,42.60
2023-05-05T18:23:26.134Z,47.13
2023-05-05T18:25:52.704Z,51.38
2023-05-05T18:28:19.317Z,47.83
2023-05-05T18:30:45.954Z,44.35
2023-05-05T18:33:12.566Z,42.85
2023-05-05T18:35:39.104Z,38.90
2023-05-05T18:38:05.860Z,31.48
2023-05-05T18:40:32.674Z,29.27
2023-05-05T18:42:59.298Z,23.38
2023-05-05T18:45:25.916Z,19.92
2023-05-05T18:47:52.551Z,17.67
2023-05-05T18:50:19.118Z,16.90
2023-05-05T18:52:45.710Z,15.75
2023-05-05T18:55:12.579Z,15.18
2023-05-05T18:57:39.248Z,14.75
2023-05-05T19:00:06.479Z,15.95
2023-05-05T19:02:33.140Z,15.65
2023-05-05T19:04:59.783Z,18.42
2023-05-05T19:07:34.871Z,20.27
2023-05-05T19:10:06.425Z,19.65
2023-05-05T19:12:33.052Z,20.17
2023-05-05T19:14:59.616Z,19.88
2023-05-05T19:17:26.221Z,20.70
2023-05-05T19:19:52.806Z,20.17
2023-05-05T19:22:20.657Z,19.77
2023-05-05T19:24:47.283Z,20.17
2023-05-05T19:27:16.398Z,20.80
2023-05-05T19:29:44.038Z,20.08
2023-05-05T19:32:10.843Z,22.55
2023-05-05T19:34:37.618Z,22.25
2023-05-05T19:37:04.222Z,23.50
2023-05-05T19:39:31.341Z,24.08
2023-05-05T19:41:57.937Z,23.35
2023-05-05T19:44:24.536Z,22.48
2023-05-05T19:46:52.767Z,22.38
2023-05-05T19:49:19.406Z,22.40
2023-05-05T19:51:47.666Z,21.90
2023-05-05T19:54:14.228Z,20.90
2023-05-05T19:56:40.837Z,17.73
2023-05-05T19:59:07.559Z,17.45
2023-05-05T20:01:35.401Z,17.30
2023-05-05T20:04:03.675Z,16.92
2023-05-05T20:06:30.489Z,18.08
2023-05-05T20:08:57.046Z,15.80
2023-05-05T20:11:25.818Z,15.98
2023-05-05T20:13:53.001Z,17.38
2023-05-05T20:16:20.201Z,21.38
2023-05-05T20:18:46.867Z,26.30
2023-05-05T20:21:14.095Z,34.95
2023-05-05T20:23:42.768Z,42.40
2023-05-05T20:26:09.537Z,52.75
2023-05-05T20:28:36.934Z,69.00
2023-05-05T20:31:03.627Z,80.03
2023-05-05T20:33:30.370Z,94.75
2023-05-05T20:35:57.088Z,99.82
2023-05-05T20:38:23.857Z,110.97
2023-05-05T20:40:50.981Z,117.63
2023-05-05T20:43:18.171Z,116.57
2023-05-05T20:45:45.053Z,123.65
2023-05-05T20:48:11.678Z,141.82
2023-05-05T20:50:41.704Z,135.57
2023-05-05T20:53:09.386Z,146.40
2023-05-05T20:55:35.977Z,154.52
2023-05-05T20:58:05.519Z,172.60
2023-05-05T21:00:32.249Z,181.35
2023-05-05T21:02:59.213Z,181.88
2023-05-05T21:05:26.069Z,201.27
2023-05-05T21:07:54.111Z,212.60
2023-05-05T21:10:20.850Z,216.00
2023-05-05T21:12:47.470Z,219.75
2023-05-05T21:15:14.214Z,234.57
2023-05-05T21:17:42.858Z,271.63
2023-05-05T21:20:10.262Z,239.98
2023-05-05T21:22:37.373Z,243.88
2023-05-05T21:25:15.954Z,245.20
2023-05-05T21:27:42.634Z,238.20
2023-05-05T21:30:11.218Z,247.95
2023-05-05T21:32:39.263Z,246.25
2023-05-05T21:35:07.666Z,246.93
2023-05-05T21:37:36.549Z,253.15
2023-05-05T21:40:03.279Z,238.07
2023-05-05T21:42:30.923Z,255.93
2023-05-05T21:44:57.466Z,236.45
2023-05-05T21:47:24.280Z,239.90
2023-05-05T21:49:50.900Z,233.63
2023-05-05T21:52:17.485Z,228.95
2023-05-05T21:54:45.305Z,222.50
2023-05-05T21:57:11.887Z,226.95
2023-05-05T21:59:38.491Z,201.32
2023-05-05T22:02:05.127Z,190.35
2023-05-05T22:04:31.649Z,173.80
2023-05-05T22:06:58.374Z,159.20
2023-05-05T22:09:24.952Z,139.05
2023-05-05T22:11:51.590Z,135.13
2023-05-05T22:14:18.163Z,122.70
2023-05-05T22:16:44.899Z,110.32
2023-05-05T22:19:11.541Z,94.90
2023-05-05T22:21:38.102Z,85.45
2023-05-05T22:24:05.330Z,75.70
2023-05-05T22:26:31.909Z,58.17
2023-05-05T22:28:58.531Z,55.55
2023-05-05T22:31:25.198Z,53.03
2023-05-05T22:33:51.882Z,46.92
2023-05-05T22:36:18.946Z,40.95
2023-05-05T22:38:45.660Z,39.65
2023-05-05T22:41:12.505Z,38.05
2023-05-05T22:43:39.165Z,37.70
2023-05-05T22:46:05.917Z,34.40
2023-05-05T22:48:32.538Z,34.55
2023-05-05T22:50:59.868Z,34.97
2023-05-05T22:53:26.579Z,36.42
2023-05-05T22:55:53.200Z,36.63
2023-05-05T22:58:20.990Z,38.40
2023-05-05T23:00:49.026Z,38.45
2023-05-05T23:03:15.614Z,42.33
2023-05-05T23:05:42.136Z,42.45
2023-05-05T23:08:08.777Z,49.85
2023-05-05T23:10:35.417Z,52.58
2023-05-05T23:13:02.222Z,60.58
2023-05-05T23:15:28.841Z,65.25
2023-05-05T23:17:55.658Z,80.43
2023-05-05T23:20:22.418Z,97.93
2023-05-05T23:22:49.995Z,108.72
2023-05-05T23:25:16.615Z,114.20
2023-05-05T23:27:43.898Z,118.18
2023-05-05T23:30:11.050Z,115.82
2023-05-05T23:32:37.969Z,124.65
2023-05-05T23:35:05.065Z,127.32
2023-05-05T23:37:31.644Z,135.40
2023-05-05T23:39:58.264Z,136.15
2023-05-05T23:42:24.861Z,134.05
2023-05-05T23:44:51.473Z,135.48
2023-05-05T23:47:18.252Z,134.52
2023-05-05T23:49:44.841Z,142.30
2023-05-05T23:52:11.475Z,140.70
2023-05-05T23:54:38.043Z,136.90
2023-05-05T23:57:04.764Z,133.70
2023-05-05T23:59:31.391Z,133.65
